sensor_id;sensor_type;location;lat;lon;timestamp;pressure;altitude;pressure_sealevel;temperature;humidity
46392;BME280;32098;49.448;7.904;2023-01-27T00:00:31;98488.38;;;-1.64;83.81
46392;BME280;32098;49.448;7.904;2023-01-27T00:02:59;98492.88;;;-1.56;83.98
46392;BME280;32098;49.448;7.904;2023-01-27T00:05:26;98501.66;;;-1.48;83.96
46392;BME280;32098;49.448;7.904;2023-01-27T00:07:53;98494.94;;;-1.50;83.88
46392;BME280;32098;49.448;7.904;2023-01-27T00:10:20;98494.78;;;-1.49;83.81
46392;BME280;32098;49.448;7.904;2023-01-27T00:12:47;98499.38;;;-1.60;83.63
46392;BME280;32098;49.448;7.904;2023-01-27T00:15:33;98487.34;;;-1.53;84.07
46392;BME280;32098;49.448;7.904;2023-01-27T00:18:00;98485.84;;;-1.56;84.29
46392;BME280;32098;49.448;7.904;2023-01-27T00:20:27;98486.31;;;-1.60;83.76
46392;BME280;32098;49.448;7.904;2023-01-27T00:23:20;98482.56;;;-1.58;84.23
46392;BME280;32098;49.448;7.904;2023-01-27T00:26:09;98485.84;;;-1.56;84.28
46392;BME280;32098;49.448;7.904;2023-01-27T00:28:37;98490.81;;;-1.53;84.26
46392;BME280;32098;49.448;7.904;2023-01-27T00:31:05;98476.72;;;-1.52;84.42
46392;BME280;32098;49.448;7.904;2023-01-27T00:33:33;98488.56;;;-1.48;83.94
46392;BME280;32098;49.448;7.904;2023-01-27T00:36:05;98480.03;;;-1.50;84.77
46392;BME280;32098;49.448;7.904;2023-01-27T00:38:34;98484.97;;;-1.47;84.58
46392;BME280;32098;49.448;7.904;2023-01-27T00:41:06;98472.75;;;-1.56;84.90
46392;BME280;32098;49.448;7.904;2023-01-27T00:43:52;98476.44;;;-1.49;84.62
46392;BME280;32098;49.448;7.904;2023-01-27T00:46:21;98476.81;;;-1.44;84.24
46392;BME280;32098;49.448;7.904;2023-01-27T00:48:48;98488.94;;;-1.43;84.58
46392;BME280;32098;49.448;7.904;2023-01-27T00:51:17;98486.16;;;-1.41;84.36
46392;BME280;32098;49.448;7.904;2023-01-27T00:53:44;98479.31;;;-1.42;84.18
46392;BME280;32098;49.448;7.904;2023-01-27T00:56:11;98475.56;;;-1.40;84.93
46392;BME280;32098;49.448;7.904;2023-01-27T00:58:38;98477.34;;;-1.40;84.12
46392;BME280;32098;49.448;7.904;2023-01-27T01:01:09;98472.84;;;-1.48;83.44
46392;BME280;32098;49.448;7.904;2023-01-27T01:03:36;98473.81;;;-1.49;84.13
46392;BME280;32098;49.448;7.904;2023-01-27T01:06:06;98479.72;;;-1.47;84.14
46392;BME280;32098;49.448;7.904;2023-01-27T01:08:34;98459.50;;;-1.54;83.97
46392;BME280;32098;49.448;7.904;2023-01-27T01:11:01;98470.53;;;-1.51;84.22
46392;BME280;32098;49.448;7.904;2023-01-27T01:13:28;98474.94;;;-1.51;84.29
46392;BME280;32098;49.448;7.904;2023-01-27T01:15:55;98480.44;;;-1.45;84.15
46392;BME280;32098;49.448;7.904;2023-01-27T01:18:23;98477.09;;;-1.47;85.01
46392;BME280;32098;49.448;7.904;2023-01-27T01:20:49;98482.34;;;-1.47;84.28
46392;BME280;32098;49.448;7.904;2023-01-27T01:23:16;98483.03;;;-1.45;84.21
46392;BME280;32098;49.448;7.904;2023-01-27T01:25:51;98487.84;;;-1.40;84.29
46392;BME280;32098;49.448;7.904;2023-01-27T01:28:18;98491.28;;;-1.40;84.35
46392;BME280;32098;49.448;7.904;2023-01-27T01:30:44;98490.84;;;-1.35;84.39
46392;BME280;32098;49.448;7.904;2023-01-27T01:33:11;98485.06;;;-1.39;84.65
46392;BME280;32098;49.448;7.904;2023-01-27T01:35:38;98478.19;;;-1.40;84.60
46392;BME280;32098;49.448;7.904;2023-01-27T01:38:05;98475.47;;;-1.48;84.66
46392;BME280;32098;49.448;7.904;2023-01-27T01:40:31;98476.91;;;-1.36;84.26
46392;BME280;32098;49.448;7.904;2023-01-27T01:43:00;98483.34;;;-1.30;83.97
46392;BME280;32098;49.448;7.904;2023-01-27T01:45:46;98482.44;;;-1.39;84.36
46392;BME280;32098;49.448;7.904;2023-01-27T01:50:53;98479.25;;;-1.33;84.31
46392;BME280;32098;49.448;7.904;2023-01-27T01:53:22;98484.75;;;-1.36;84.51
46392;BME280;32098;49.448;7.904;2023-01-27T01:55:56;98465.09;;;-1.40;84.46
46392;BME280;32098;49.448;7.904;2023-01-27T01:58:26;98488.06;;;-1.34;84.19
46392;BME280;32098;49.448;7.904;2023-01-27T02:00:54;98472.06;;;-1.31;84.97
46392;BME280;32098;49.448;7.904;2023-01-27T02:03:23;98477.00;;;-1.28;84.78
46392;BME280;32098;49.448;7.904;2023-01-27T02:05:52;98463.56;;;-1.25;84.18
46392;BME280;32098;49.448;7.904;2023-01-27T02:08:25;98469.81;;;-1.26;84.30
46392;BME280;32098;49.448;7.904;2023-01-27T02:10:54;98474.06;;;-1.25;84.22
46392;BME280;32098;49.448;7.904;2023-01-27T02:13:21;98470.94;;;-1.28;84.67
46392;BME280;32098;49.448;7.904;2023-01-27T02:15:49;98474.81;;;-1.32;84.16
46392;BME280;32098;49.448;7.904;2023-01-27T02:18:17;98470.09;;;-1.29;84.63
46392;BME280;32098;49.448;7.904;2023-01-27T02:20:49;98464.94;;;-1.21;84.18
46392;BME280;32098;49.448;7.904;2023-01-27T02:23:41;98465.63;;;-1.19;84.75
46392;BME280;32098;49.448;7.904;2023-01-27T02:26:35;98461.66;;;-1.23;84.76
46392;BME280;32098;49.448;7.904;2023-01-27T02:29:04;98456.72;;;-1.26;84.95
46392;BME280;32098;49.448;7.904;2023-01-27T02:31:31;98462.25;;;-1.29;84.34
46392;BME280;32098;49.448;7.904;2023-01-27T02:34:01;98436.41;;;-1.41;84.61
46392;BME280;32098;49.448;7.904;2023-01-27T02:36:31;98457.81;;;-1.28;85.13
46392;BME280;32098;49.448;7.904;2023-01-27T02:39:00;98462.47;;;-1.40;85.37
46392;BME280;32098;49.448;7.904;2023-01-27T02:41:36;98465.41;;;-1.70;87.00
46392;BME280;32098;49.448;7.904;2023-01-27T02:44:06;98464.91;;;-1.56;87.58
46392;BME280;32098;49.448;7.904;2023-01-27T02:46:32;98460.75;;;-1.76;88.57
46392;BME280;32098;49.448;7.904;2023-01-27T02:49:00;98469.16;;;-2.09;91.38
46392;BME280;32098;49.448;7.904;2023-01-27T02:51:27;98462.47;;;-2.21;92.99
46392;BME280;32098;49.448;7.904;2023-01-27T02:53:54;98461.97;;;-2.07;92.30
46392;BME280;32098;49.448;7.904;2023-01-27T02:56:21;98471.38;;;-2.14;93.55
46392;BME280;32098;49.448;7.904;2023-01-27T02:58:47;98459.97;;;-2.13;93.49
46392;BME280;32098;49.448;7.904;2023-01-27T03:01:19;98464.81;;;-2.18;94.03
46392;BME280;32098;49.448;7.904;2023-01-27T03:03:46;98469.44;;;-2.12;94.52
46392;BME280;32098;49.448;7.904;2023-01-27T03:06:17;98470.22;;;-2.39;95.36
46392;BME280;32098;49.448;7.904;2023-01-27T03:08:44;98463.78;;;-2.54;96.31
46392;BME280;32098;49.448;7.904;2023-01-27T03:11:13;98479.69;;;-2.28;96.07
46392;BME280;32098;49.448;7.904;2023-01-27T03:13:40;98486.34;;;-2.44;96.72
46392;BME280;32098;49.448;7.904;2023-01-27T03:16:06;98482.47;;;-2.40;97.11
46392;BME280;32098;49.448;7.904;2023-01-27T03:18:53;98483.97;;;-2.27;96.54
46392;BME280;32098;49.448;7.904;2023-01-27T03:21:21;98489.91;;;-2.35;94.79
46392;BME280;32098;49.448;7.904;2023-01-27T03:23:48;98446.06;;;-2.60;96.04
46392;BME280;32098;49.448;7.904;2023-01-27T03:26:19;98483.28;;;-2.29;96.22
46392;BME280;32098;49.448;7.904;2023-01-27T03:28:51;98481.44;;;-2.19;95.08
46392;BME280;32098;49.448;7.904;2023-01-27T03:31:40;98470.13;;;-2.57;96.60
46392;BME280;32098;49.448;7.904;2023-01-27T03:34:08;98489.25;;;-2.47;96.65
46392;BME280;32098;49.448;7.904;2023-01-27T03:36:40;98497.94;;;-2.56;96.38
46392;BME280;32098;49.448;7.904;2023-01-27T03:39:25;98488.75;;;-2.13;95.02
46392;BME280;32098;49.448;7.904;2023-01-27T03:42:11;98487.59;;;-2.48;93.55
46392;BME280;32098;49.448;7.904;2023-01-27T03:44:56;98491.97;;;-2.39;92.66
46392;BME280;32098;49.448;7.904;2023-01-27T03:47:41;98490.72;;;-2.35;91.77
46392;BME280;32098;49.448;7.904;2023-01-27T03:50:08;98480.03;;;-2.51;92.17
46392;BME280;32098;49.448;7.904;2023-01-27T03:52:39;98499.41;;;-2.34;91.22
46392;BME280;32098;49.448;7.904;2023-01-27T03:55:06;98492.81;;;-2.38;91.66
46392;BME280;32098;49.448;7.904;2023-01-27T03:57:36;98499.56;;;-2.36;91.84
46392;BME280;32098;49.448;7.904;2023-01-27T04:00:03;98485.88;;;-2.29;91.63
46392;BME280;32098;49.448;7.904;2023-01-27T04:02:38;98491.91;;;-2.19;90.77
46392;BME280;32098;49.448;7.904;2023-01-27T04:05:23;98502.78;;;-2.14;90.61
46392;BME280;32098;49.448;7.904;2023-01-27T04:08:08;98496.47;;;-2.21;90.98
46392;BME280;32098;49.448;7.904;2023-01-27T04:10:35;98496.22;;;-2.28;90.75
46392;BME280;32098;49.448;7.904;2023-01-27T04:13:01;98501.25;;;-2.17;90.80
46392;BME280;32098;49.448;7.904;2023-01-27T04:15:27;98497.84;;;-2.17;91.00
46392;BME280;32098;49.448;7.904;2023-01-27T04:17:54;98497.06;;;-2.27;90.56
46392;BME280;32098;49.448;7.904;2023-01-27T04:20:21;98501.09;;;-2.43;91.81
46392;BME280;32098;49.448;7.904;2023-01-27T04:22:47;98499.63;;;-2.18;90.49
46392;BME280;32098;49.448;7.904;2023-01-27T04:25:14;98493.19;;;-2.23;90.58
46392;BME280;32098;49.448;7.904;2023-01-27T04:27:41;98492.66;;;-2.37;90.49
46392;BME280;32098;49.448;7.904;2023-01-27T04:30:09;98500.03;;;-2.13;90.60
46392;BME280;32098;49.448;7.904;2023-01-27T04:32:35;98503.44;;;-2.12;89.55
46392;BME280;32098;49.448;7.904;2023-01-27T04:35:02;98507.44;;;-2.08;89.21
46392;BME280;32098;49.448;7.904;2023-01-27T04:37:29;98499.75;;;-2.19;89.25
46392;BME280;32098;49.448;7.904;2023-01-27T04:39:55;98504.38;;;-2.41;90.03
46392;BME280;32098;49.448;7.904;2023-01-27T04:42:22;98509.69;;;-2.23;89.94
46392;BME280;32098;49.448;7.904;2023-01-27T04:44:48;98517.56;;;-2.42;89.91
46392;BME280;32098;49.448;7.904;2023-01-27T04:47:15;98508.03;;;-2.24;89.75
46392;BME280;32098;49.448;7.904;2023-01-27T04:49:41;98510.41;;;-2.30;89.79
46392;BME280;32098;49.448;7.904;2023-01-27T04:52:08;98509.88;;;-2.44;90.20
46392;BME280;32098;49.448;7.904;2023-01-27T04:54:34;98500.09;;;-2.42;89.99
46392;BME280;32098;49.448;7.904;2023-01-27T04:57:01;98510.28;;;-2.39;90.50
46392;BME280;32098;49.448;7.904;2023-01-27T04:59:30;98520.19;;;-2.32;90.01
46392;BME280;32098;49.448;7.904;2023-01-27T05:01:57;98514.09;;;-2.23;89.43
46392;BME280;32098;49.448;7.904;2023-01-27T05:04:24;98511.38;;;-2.31;90.58
46392;BME280;32098;49.448;7.904;2023-01-27T05:06:52;98510.84;;;-2.45;91.42
46392;BME280;32098;49.448;7.904;2023-01-27T05:09:19;98517.66;;;-2.24;91.00
46392;BME280;32098;49.448;7.904;2023-01-27T05:11:45;98518.13;;;-2.39;91.03
46392;BME280;32098;49.448;7.904;2023-01-27T05:14:12;98522.81;;;-2.42;91.60
46392;BME280;32098;49.448;7.904;2023-01-27T05:16:39;98514.97;;;-2.42;91.95
46392;BME280;32098;49.448;7.904;2023-01-27T05:19:07;98525.97;;;-2.39;91.36
46392;BME280;32098;49.448;7.904;2023-01-27T05:21:34;98528.84;;;-2.22;91.18
46392;BME280;32098;49.448;7.904;2023-01-27T05:24:01;98517.97;;;-2.27;90.58
46392;BME280;32098;49.448;7.904;2023-01-27T05:26:28;98530.91;;;-2.26;90.09
46392;BME280;32098;49.448;7.904;2023-01-27T05:28:57;98529.44;;;-2.48;90.50
46392;BME280;32098;49.448;7.904;2023-01-27T05:31:29;98524.88;;;-2.46;90.50
46392;BME280;32098;49.448;7.904;2023-01-27T05:33:58;98535.31;;;-2.26;89.61
46392;BME280;32098;49.448;7.904;2023-01-27T05:36:26;98543.06;;;-2.54;91.10
46392;BME280;32098;49.448;7.904;2023-01-27T05:38:53;98536.03;;;-2.44;90.83
46392;BME280;32098;49.448;7.904;2023-01-27T05:41:21;98533.94;;;-2.30;90.94
46392;BME280;32098;49.448;7.904;2023-01-27T05:43:53;98544.31;;;-2.48;90.83
46392;BME280;32098;49.448;7.904;2023-01-27T05:46:23;98547.47;;;-2.54;91.44
46392;BME280;32098;49.448;7.904;2023-01-27T05:48:53;98552.09;;;-2.29;90.57
46392;BME280;32098;49.448;7.904;2023-01-27T05:51:21;98541.50;;;-2.18;89.28
46392;BME280;32098;49.448;7.904;2023-01-27T05:53:48;98543.88;;;-2.44;90.01
46392;BME280;32098;49.448;7.904;2023-01-27T05:56:17;98544.69;;;-2.33;89.08
46392;BME280;32098;49.448;7.904;2023-01-27T05:58:44;98549.91;;;-2.33;89.19
46392;BME280;32098;49.448;7.904;2023-01-27T06:03:40;98545.09;;;-2.28;89.42
46392;BME280;32098;49.448;7.904;2023-01-27T06:06:08;98550.47;;;-2.49;89.46
46392;BME280;32098;49.448;7.904;2023-01-27T06:08:35;98544.44;;;-2.40;89.11
46392;BME280;32098;49.448;7.904;2023-01-27T06:11:03;98557.38;;;-2.58;90.05
46392;BME280;32098;49.448;7.904;2023-01-27T06:13:29;98558.03;;;-2.37;89.25
46392;BME280;32098;49.448;7.904;2023-01-27T06:15:56;98547.47;;;-2.54;89.93
46392;BME280;32098;49.448;7.904;2023-01-27T06:18:23;98555.97;;;-2.52;89.89
46392;BME280;32098;49.448;7.904;2023-01-27T06:20:49;98546.34;;;-2.52;89.68
46392;BME280;32098;49.448;7.904;2023-01-27T06:23:16;98551.56;;;-2.32;89.43
46392;BME280;32098;49.448;7.904;2023-01-27T06:25:46;98553.19;;;-2.22;88.97
46392;BME280;32098;49.448;7.904;2023-01-27T06:28:14;98567.28;;;-2.32;88.60
46392;BME280;32098;49.448;7.904;2023-01-27T06:30:55;98569.19;;;-2.25;88.82
46392;BME280;32098;49.448;7.904;2023-01-27T06:33:22;98574.44;;;-2.63;89.05
46392;BME280;32098;49.448;7.904;2023-01-27T06:35:48;98573.19;;;-2.50;90.08
46392;BME280;32098;49.448;7.904;2023-01-27T06:38:15;98565.75;;;-2.54;90.58
46392;BME280;32098;49.448;7.904;2023-01-27T06:40:41;98567.00;;;-2.58;89.88
46392;BME280;32098;49.448;7.904;2023-01-27T06:43:12;98557.09;;;-2.64;89.79
46392;BME280;32098;49.448;7.904;2023-01-27T06:45:39;98570.84;;;-2.33;88.88
46392;BME280;32098;49.448;7.904;2023-01-27T06:48:06;98578.81;;;-2.45;89.11
46392;BME280;32098;49.448;7.904;2023-01-27T06:50:34;98577.88;;;-2.63;89.75
46392;BME280;32098;49.448;7.904;2023-01-27T06:53:03;98578.31;;;-2.58;89.91
46392;BME280;32098;49.448;7.904;2023-01-27T06:55:31;98583.22;;;-2.55;89.99
46392;BME280;32098;49.448;7.904;2023-01-27T06:57:58;98589.59;;;-2.48;89.93
46392;BME280;32098;49.448;7.904;2023-01-27T07:00:24;98597.44;;;-2.48;89.63
46392;BME280;32098;49.448;7.904;2023-01-27T07:02:54;98590.66;;;-2.41;89.10
46392;BME280;32098;49.448;7.904;2023-01-27T07:05:21;98591.47;;;-2.50;89.68
46392;BME280;32098;49.448;7.904;2023-01-27T07:07:47;98595.06;;;-2.41;89.60
46392;BME280;32098;49.448;7.904;2023-01-27T07:10:14;98603.03;;;-2.23;88.90
46392;BME280;32098;49.448;7.904;2023-01-27T07:12:41;98613.66;;;-2.54;89.16
46392;BME280;32098;49.448;7.904;2023-01-27T07:15:08;98609.53;;;-2.56;90.98
46392;BME280;32098;49.448;7.904;2023-01-27T07:17:35;98615.00;;;-2.50;90.17
46392;BME280;32098;49.448;7.904;2023-01-27T07:20:03;98609.69;;;-2.58;89.78
46392;BME280;32098;49.448;7.904;2023-01-27T07:22:30;98608.84;;;-2.68;90.60
46392;BME280;32098;49.448;7.904;2023-01-27T07:24:57;98608.53;;;-2.65;90.68
46392;BME280;32098;49.448;7.904;2023-01-27T07:27:24;98611.31;;;-2.57;90.38
46392;BME280;32098;49.448;7.904;2023-01-27T07:29:50;98611.72;;;-2.52;91.00
46392;BME280;32098;49.448;7.904;2023-01-27T07:32:17;98611.28;;;-2.47;90.76
46392;BME280;32098;49.448;7.904;2023-01-27T07:34:44;98604.16;;;-2.55;90.46
46392;BME280;32098;49.448;7.904;2023-01-27T07:37:12;98620.13;;;-2.58;90.51
46392;BME280;32098;49.448;7.904;2023-01-27T07:39:38;98617.38;;;-2.47;90.98
46392;BME280;32098;49.448;7.904;2023-01-27T07:42:05;98622.59;;;-2.27;89.79
46392;BME280;32098;49.448;7.904;2023-01-27T07:44:33;98626.16;;;-2.28;89.93
46392;BME280;32098;49.448;7.904;2023-01-27T07:46:59;98631.00;;;-2.33;89.69
46392;BME280;32098;49.448;7.904;2023-01-27T07:49:26;98630.72;;;-2.40;89.59
46392;BME280;32098;49.448;7.904;2023-01-27T07:51:53;98616.13;;;-2.43;89.16
46392;BME280;32098;49.448;7.904;2023-01-27T07:54:19;98641.44;;;-2.33;89.30
46392;BME280;32098;49.448;7.904;2023-01-27T07:56:46;98627.56;;;-2.44;88.90
46392;BME280;32098;49.448;7.904;2023-01-27T07:59:12;98635.81;;;-2.39;89.23
46392;BME280;32098;49.448;7.904;2023-01-27T08:01:39;98640.34;;;-2.41;90.03
46392;BME280;32098;49.448;7.904;2023-01-27T08:04:07;98643.50;;;-2.37;89.79
46392;BME280;32098;49.448;7.904;2023-01-27T08:06:33;98652.31;;;-2.57;90.13
46392;BME280;32098;49.448;7.904;2023-01-27T08:09:00;98655.22;;;-2.51;91.00
46392;BME280;32098;49.448;7.904;2023-01-27T08:11:26;98655.63;;;-2.46;90.58
46392;BME280;32098;49.448;7.904;2023-01-27T08:13:53;98663.84;;;-2.60;90.70
46392;BME280;32098;49.448;7.904;2023-01-27T08:16:19;98658.09;;;-2.44;90.49
46392;BME280;32098;49.448;7.904;2023-01-27T08:18:46;98653.16;;;-2.28;89.86
46392;BME280;32098;49.448;7.904;2023-01-27T08:21:12;98660.16;;;-2.28;89.31
46392;BME280;32098;49.448;7.904;2023-01-27T08:23:39;98662.22;;;-2.42;90.23
46392;BME280;32098;49.448;7.904;2023-01-27T08:26:06;98644.91;;;-2.43;90.18
46392;BME280;32098;49.448;7.904;2023-01-27T08:28:34;98657.03;;;-2.22;89.94
46392;BME280;32098;49.448;7.904;2023-01-27T08:31:09;98660.84;;;-2.26;89.35
46392;BME280;32098;49.448;7.904;2023-01-27T08:33:37;98657.56;;;-2.48;89.05
46392;BME280;32098;49.448;7.904;2023-01-27T08:36:06;98659.19;;;-2.56;89.24
46392;BME280;32098;49.448;7.904;2023-01-27T08:38:33;98658.66;;;-2.41;89.78
46392;BME280;32098;49.448;7.904;2023-01-27T08:41:05;98655.47;;;-2.35;90.03
46392;BME280;32098;49.448;7.904;2023-01-27T08:43:32;98659.19;;;-2.08;88.63
46392;BME280;32098;49.448;7.904;2023-01-27T08:45:59;98670.63;;;-2.19;87.82
46392;BME280;32098;49.448;7.904;2023-01-27T08:48:29;98671.19;;;-2.15;87.66
46392;BME280;32098;49.448;7.904;2023-01-27T08:50:57;98668.56;;;-2.35;88.21
46392;BME280;32098;49.448;7.904;2023-01-27T08:53:25;98672.84;;;-2.24;87.52
46392;BME280;32098;49.448;7.904;2023-01-27T08:55:54;98674.75;;;-2.16;87.84
46392;BME280;32098;49.448;7.904;2023-01-27T08:58:21;98669.41;;;-2.05;87.43
46392;BME280;32098;49.448;7.904;2023-01-27T09:00:48;98669.41;;;-2.15;86.70
46392;BME280;32098;49.448;7.904;2023-01-27T09:03:15;98677.25;;;-2.05;87.06
46392;BME280;32098;49.448;7.904;2023-01-27T09:05:42;98678.47;;;-1.90;85.75
46392;BME280;32098;49.448;7.904;2023-01-27T09:08:08;98692.53;;;-2.01;85.24
46392;BME280;32098;49.448;7.904;2023-01-27T09:10:36;98679.03;;;-2.15;86.33
46392;BME280;32098;49.448;7.904;2023-01-27T09:13:04;98688.09;;;-2.19;85.75
46392;BME280;32098;49.448;7.904;2023-01-27T09:15:30;98695.13;;;-2.29;86.60
46392;BME280;32098;49.448;7.904;2023-01-27T09:17:57;98684.94;;;-2.13;86.13
46392;BME280;32098;49.448;7.904;2023-01-27T09:20:24;98687.72;;;-2.15;86.55
46392;BME280;32098;49.448;7.904;2023-01-27T09:22:53;98701.59;;;-2.14;86.18
46392;BME280;32098;49.448;7.904;2023-01-27T09:25:20;98693.06;;;-2.16;85.94
46392;BME280;32098;49.448;7.904;2023-01-27T09:27:46;98700.66;;;-2.13;85.71
46392;BME280;32098;49.448;7.904;2023-01-27T09:30:14;98706.41;;;-1.81;85.59
46392;BME280;32098;49.448;7.904;2023-01-27T09:32:42;98713.03;;;-1.87;85.21
46392;BME280;32098;49.448;7.904;2023-01-27T09:35:08;98703.94;;;-1.73;84.86
46392;BME280;32098;49.448;7.904;2023-01-27T09:37:40;98703.38;;;-1.86;83.73
46392;BME280;32098;49.448;7.904;2023-01-27T09:40:17;98693.63;;;-2.22;84.57
46392;BME280;32098;49.448;7.904;2023-01-27T09:46:05;98722.13;;;-1.91;85.16
46392;BME280;32098;49.448;7.904;2023-01-27T09:48:49;98712.19;;;-1.68;84.04
46392;BME280;32098;49.448;7.904;2023-01-27T09:54:36;98723.31;;;-1.56;83.66
46392;BME280;32098;49.448;7.904;2023-01-27T09:57:31;98715.75;;;-1.50;83.67
46392;BME280;32098;49.448;7.904;2023-01-27T10:00:11;98729.53;;;-1.67;82.41
46392;BME280;32098;49.448;7.904;2023-01-27T10:03:19;98719.78;;;-1.94;82.91
46392;BME280;32098;49.448;7.904;2023-01-27T10:06:17;98725.56;;;-2.09;84.64
46392;BME280;32098;49.448;7.904;2023-01-27T10:11:51;98728.88;;;-2.17;86.10
46392;BME280;32098;49.448;7.904;2023-01-27T10:22:25;98723.38;;;-2.04;85.78
46392;BME280;32098;49.448;7.904;2023-01-27T10:27:40;98716.34;;;-1.94;86.10
46392;BME280;32098;49.448;7.904;2023-01-27T10:30:24;98713.16;;;-2.07;86.01
46392;BME280;32098;49.448;7.904;2023-01-27T10:33:20;98699.09;;;-1.87;85.76
46392;BME280;32098;49.448;7.904;2023-01-27T10:42:06;98704.91;;;-1.93;85.51
46392;BME280;32098;49.448;7.904;2023-01-27T10:44:55;98695.00;;;-1.80;85.64
46392;BME280;32098;49.448;7.904;2023-01-27T10:50:16;98685.03;;;-1.57;85.24
46392;BME280;32098;49.448;7.904;2023-01-27T10:52:49;98677.88;;;-1.65;84.38
46392;BME280;32098;49.448;7.904;2023-01-27T10:55:35;98690.84;;;-1.73;85.67
46392;BME280;32098;49.448;7.904;2023-01-27T10:58:09;98689.22;;;-1.93;86.45
46392;BME280;32098;49.448;7.904;2023-01-27T11:00:41;98687.94;;;-1.70;86.05
46392;BME280;32098;49.448;7.904;2023-01-27T11:03:39;98683.66;;;-1.71;86.06
46392;BME280;32098;49.448;7.904;2023-01-27T11:06:13;98687.50;;;-1.56;85.64
46392;BME280;32098;49.448;7.904;2023-01-27T11:08:44;98683.00;;;-1.36;85.68
46392;BME280;32098;49.448;7.904;2023-01-27T11:11:12;98681.59;;;-1.21;85.38
46392;BME280;32098;49.448;7.904;2023-01-27T11:14:02;98686.38;;;-1.17;84.85
46392;BME280;32098;49.448;7.904;2023-01-27T11:16:37;98678.25;;;-1.14;84.52
46392;BME280;32098;49.448;7.904;2023-01-27T11:19:29;98677.38;;;-1.05;84.40
46392;BME280;32098;49.448;7.904;2023-01-27T11:21:58;98673.78;;;-1.03;84.14
46392;BME280;32098;49.448;7.904;2023-01-27T11:27:38;98674.44;;;-0.74;83.34
46392;BME280;32098;49.448;7.904;2023-01-27T11:30:17;98669.91;;;-0.72;83.29
46392;BME280;32098;49.448;7.904;2023-01-27T11:32:55;98660.63;;;-0.94;82.40
46392;BME280;32098;49.448;7.904;2023-01-27T11:35:24;98681.81;;;-1.05;84.46
46392;BME280;32098;49.448;7.904;2023-01-27T11:37:51;98682.34;;;-1.38;84.37
46392;BME280;32098;49.448;7.904;2023-01-27T11:40:30;98659.75;;;-1.49;85.45
46392;BME280;32098;49.448;7.904;2023-01-27T11:42:58;98654.97;;;-1.53;86.12
46392;BME280;32098;49.448;7.904;2023-01-27T11:45:26;98674.72;;;-1.32;86.17
46392;BME280;32098;49.448;7.904;2023-01-27T11:47:58;98689.94;;;-1.54;86.68
46392;BME280;32098;49.448;7.904;2023-01-27T11:50:29;98682.41;;;-1.57;86.83
46392;BME280;32098;49.448;7.904;2023-01-27T11:53:33;98676.84;;;-1.54;87.04
46392;BME280;32098;49.448;7.904;2023-01-27T11:56:07;98678.66;;;-1.45;86.84
46392;BME280;32098;49.448;7.904;2023-01-27T11:58:40;98681.69;;;-1.50;87.20
46392;BME280;32098;49.448;7.904;2023-01-27T12:01:16;98681.69;;;-1.50;86.56
46392;BME280;32098;49.448;7.904;2023-01-27T12:04:04;98671.22;;;-1.50;86.29
46392;BME280;32098;49.448;7.904;2023-01-27T12:06:39;98641.69;;;-1.52;86.64
46392;BME280;32098;49.448;7.904;2023-01-27T12:14:35;98675.44;;;-1.30;85.33
46392;BME280;32098;49.448;7.904;2023-01-27T12:17:03;98666.09;;;-1.51;85.75
46392;BME280;32098;49.448;7.904;2023-01-27T12:19:39;98672.34;;;-1.62;86.05
46392;BME280;32098;49.448;7.904;2023-01-27T12:22:19;98657.03;;;-1.57;86.23
46392;BME280;32098;49.448;7.904;2023-01-27T12:24:54;98656.88;;;-1.46;86.81
46392;BME280;32098;49.448;7.904;2023-01-27T12:27:24;98673.88;;;-1.69;86.76
46392;BME280;32098;49.448;7.904;2023-01-27T12:29:54;98662.41;;;-1.58;87.77
46392;BME280;32098;49.448;7.904;2023-01-27T12:32:54;98664.69;;;-1.36;86.72
46392;BME280;32098;49.448;7.904;2023-01-27T12:35:25;98661.81;;;-1.43;87.06
46392;BME280;32098;49.448;7.904;2023-01-27T12:38:02;98669.13;;;-1.46;86.48
46392;BME280;32098;49.448;7.904;2023-01-27T12:40:31;98660.44;;;-1.37;87.01
46392;BME280;32098;49.448;7.904;2023-01-27T12:43:13;98668.91;;;-1.26;86.16
46392;BME280;32098;49.448;7.904;2023-01-27T12:45:41;98663.56;;;-1.34;86.89
46392;BME280;32098;49.448;7.904;2023-01-27T12:50:52;98656.53;;;-1.33;86.89
46392;BME280;32098;49.448;7.904;2023-01-27T12:53:24;98654.47;;;-1.30;86.09
46392;BME280;32098;49.448;7.904;2023-01-27T12:55:57;98659.31;;;-1.35;86.11
46392;BME280;32098;49.448;7.904;2023-01-27T12:58:31;98643.59;;;-1.35;86.81
46392;BME280;32098;49.448;7.904;2023-01-27T13:03:44;98642.50;;;-1.15;86.53
46392;BME280;32098;49.448;7.904;2023-01-27T13:06:15;98652.31;;;-1.17;86.45
46392;BME280;32098;49.448;7.904;2023-01-27T13:08:44;98659.22;;;-1.16;85.72
46392;BME280;32098;49.448;7.904;2023-01-27T13:11:12;98662.53;;;-1.14;86.46
46392;BME280;32098;49.448;7.904;2023-01-27T13:13:47;98664.06;;;-1.21;86.29
46392;BME280;32098;49.448;7.904;2023-01-27T13:16:17;98666.59;;;-1.29;87.01
46392;BME280;32098;49.448;7.904;2023-01-27T13:18:57;98666.31;;;-1.26;87.14
46392;BME280;32098;49.448;7.904;2023-01-27T13:21:31;98664.34;;;-1.24;87.38
46392;BME280;32098;49.448;7.904;2023-01-27T13:24:01;98665.06;;;-1.31;87.85
46392;BME280;32098;49.448;7.904;2023-01-27T13:26:31;98664.69;;;-1.09;86.71
46392;BME280;32098;49.448;7.904;2023-01-27T13:31:48;98656.50;;;-1.24;86.11
46392;BME280;32098;49.448;7.904;2023-01-27T13:34:21;98667.38;;;-1.19;87.59
46392;BME280;32098;49.448;7.904;2023-01-27T13:36:54;98661.13;;;-1.08;87.07
46392;BME280;32098;49.448;7.904;2023-01-27T13:42:25;98658.44;;;-0.98;87.23
46392;BME280;32098;49.448;7.904;2023-01-27T13:44:59;98658.94;;;-1.13;87.29
46392;BME280;32098;49.448;7.904;2023-01-27T13:47:38;98661.41;;;-1.11;87.27
46392;BME280;32098;49.448;7.904;2023-01-27T13:50:31;98662.03;;;-1.27;87.28
46392;BME280;32098;49.448;7.904;2023-01-27T13:52:59;98654.84;;;-1.25;87.53
46392;BME280;32098;49.448;7.904;2023-01-27T13:55:54;98660.47;;;-1.20;86.98
46392;BME280;32098;49.448;7.904;2023-01-27T13:58:44;98668.19;;;-1.18;86.26
46392;BME280;32098;49.448;7.904;2023-01-27T14:07:07;98670.22;;;-1.02;85.76
46392;BME280;32098;49.448;7.904;2023-01-27T14:10:01;98670.50;;;-1.06;86.26
46392;BME280;32098;49.448;7.904;2023-01-27T14:12:37;98669.72;;;-0.88;85.66
46392;BME280;32098;49.448;7.904;2023-01-27T14:15:41;98664.28;;;-0.77;85.04
46392;BME280;32098;49.448;7.904;2023-01-27T14:18:18;98665.00;;;-0.85;86.02
46392;BME280;32098;49.448;7.904;2023-01-27T14:20:58;98666.94;;;-0.87;86.52